sensor_id;sensor_type;location;lat;lon;timestamp;P1;durP1;ratioP1;P2;durP2;ratioP2
44130;SDS011;29792;48.726;9.248;2024-03-02T00:01:03;12.40;;;10.15;;
44130;SDS011;29792;48.726;9.248;2024-03-02T00:03:28;13.52;;;10.07;;
44130;SDS011;29792;48.726;9.248;2024-03-02T00:05:54;13.93;;;10.50;;
44130;SDS011;29792;48.726;9.248;2024-03-02T00:08:22;14.07;;;10.90;;
44130;SDS011;29792;48.726;9.248;2024-03-02T00:10:53;14.77;;;10.57;;
44130;SDS011;29792;48.726;9.248;2024-03-02T00:13:22;12.95;;;10.65;;
44130;SDS011;29792;48.726;9.248;2024-03-02T00:15:48;13.98;;;11.90;;
44130;SDS011;29792;48.726;9.248;2024-03-02T00:18:18;12.63;;;10.50;;
44130;SDS011;29792;48.726;9.248;2024-03-02T00:20:57;13.00;;;11.13;;
44130;SDS011;29792;48.726;9.248;2024-03-02T00:23:23;12.45;;;10.30;;
44130;SDS011;29792;48.726;9.248;2024-03-02T00:25:52;14.27;;;10.80;;
44130;SDS011;29792;48.726;9.248;2024-03-02T00:28:22;13.52;;;11.18;;
44130;SDS011;29792;48.726;9.248;2024-03-02T00:33:20;14.88;;;12.35;;
44130;SDS011;29792;48.726;9.248;2024-03-02T00:35:46;15.52;;;11.40;;
44130;SDS011;29792;48.726;9.248;2024-03-02T00:38:12;17.90;;;12.27;;
44130;SDS011;29792;48.726;9.248;2024-03-02T00:40:40;16.75;;;12.07;;
44130;SDS011;29792;48.726;9.248;2024-03-02T00:43:05;18.27;;;12.88;;
44130;SDS011;29792;48.726;9.248;2024-03-02T00:45:34;13.82;;;10.75;;
44130;SDS011;29792;48.726;9.248;2024-03-02T00:47:59;18.88;;;12.50;;
44130;SDS011;29792;48.726;9.248;2024-03-02T00:50:25;16.92;;;12.70;;
44130;SDS011;29792;48.726;9.248;2024-03-02T00:52:50;15.02;;;11.05;;
44130;SDS011;29792;48.726;9.248;2024-03-02T00:55:15;14.85;;;11.40;;
44130;SDS011;29792;48.726;9.248;2024-03-02T00:57:41;18.42;;;12.43;;
44130;SDS011;29792;48.726;9.248;2024-03-02T01:00:06;15.10;;;11.48;;
44130;SDS011;29792;48.726;9.248;2024-03-02T01:02:35;19.98;;;12.98;;
44130;SDS011;29792;48.726;9.248;2024-03-02T01:05:00;15.00;;;12.63;;
44130;SDS011;29792;48.726;9.248;2024-03-02T01:07:26;15.25;;;11.30;;
44130;SDS011;29792;48.726;9.248;2024-03-02T01:09:51;16.73;;;12.30;;
44130;SDS011;29792;48.726;9.248;2024-03-02T01:12:16;15.38;;;11.63;;
44130;SDS011;29792;48.726;9.248;2024-03-02T01:14:41;14.48;;;11.48;;
44130;SDS011;29792;48.726;9.248;2024-03-02T01:17:07;17.02;;;12.73;;
44130;SDS011;29792;48.726;9.248;2024-03-02T01:19:32;15.68;;;12.07;;
44130;SDS011;29792;48.726;9.248;2024-03-02T01:21:57;14.95;;;11.80;;
44130;SDS011;29792;48.726;9.248;2024-03-02T01:24:22;15.98;;;12.82;;
44130;SDS011;29792;48.726;9.248;2024-03-02T01:26:48;15.45;;;12.18;;
44130;SDS011;29792;48.726;9.248;2024-03-02T01:29:13;21.20;;;14.57;;
44130;SDS011;29792;48.726;9.248;2024-03-02T01:31:38;17.83;;;12.88;;
44130;SDS011;29792;48.726;9.248;2024-03-02T01:34:07;18.63;;;13.88;;
44130;SDS011;29792;48.726;9.248;2024-03-02T01:36:32;20.20;;;13.30;;
44130;SDS011;29792;48.726;9.248;2024-03-02T01:38:57;20.52;;;14.18;;
44130;SDS011;29792;48.726;9.248;2024-03-02T01:41:22;16.83;;;12.75;;
44130;SDS011;29792;48.726;9.248;2024-03-02T01:43:48;17.45;;;12.85;;
44130;SDS011;29792;48.726;9.248;2024-03-02T01:46:13;17.30;;;12.02;;
44130;SDS011;29792;48.726;9.248;2024-03-02T01:48:38;17.25;;;12.73;;
44130;SDS011;29792;48.726;9.248;2024-03-02T01:51:03;18.85;;;13.50;;
44130;SDS011;29792;48.726;9.248;2024-03-02T01:53:31;16.05;;;11.77;;
44130;SDS011;29792;48.726;9.248;2024-03-02T01:55:56;17.90;;;12.55;;
44130;SDS011;29792;48.726;9.248;2024-03-02T01:58:21;14.55;;;11.55;;
44130;SDS011;29792;48.726;9.248;2024-03-02T02:00:47;18.73;;;11.38;;
44130;SDS011;29792;48.726;9.248;2024-03-02T02:03:12;17.35;;;13.23;;
44130;SDS011;29792;48.726;9.248;2024-03-02T02:05:38;18.33;;;12.60;;
44130;SDS011;29792;48.726;9.248;2024-03-02T02:08:03;17.13;;;13.05;;
44130;SDS011;29792;48.726;9.248;2024-03-02T02:10:29;16.42;;;12.40;;
44130;SDS011;29792;48.726;9.248;2024-03-02T02:12:54;17.17;;;12.55;;
44130;SDS011;29792;48.726;9.248;2024-03-02T02:15:23;17.63;;;12.75;;
44130;SDS011;29792;48.726;9.248;2024-03-02T02:17:48;16.45;;;12.68;;
44130;SDS011;29792;48.726;9.248;2024-03-02T02:20:13;19.35;;;13.45;;
44130;SDS011;29792;48.726;9.248;2024-03-02T02:22:39;14.38;;;10.75;;
44130;SDS011;29792;48.726;9.248;2024-03-02T02:25:04;15.35;;;11.48;;
44130;SDS011;29792;48.726;9.248;2024-03-02T02:27:30;16.77;;;12.63;;
44130;SDS011;29792;48.726;9.248;2024-03-02T02:29:55;17.23;;;11.43;;
44130;SDS011;29792;48.726;9.248;2024-03-02T02:32:21;17.98;;;12.93;;
44130;SDS011;29792;48.726;9.248;2024-03-02T02:34:46;17.80;;;12.00;;
44130;SDS011;29792;48.726;9.248;2024-03-02T02:37:11;14.95;;;10.98;;
44130;SDS011;29792;48.726;9.248;2024-03-02T02:39:37;16.95;;;12.13;;
44130;SDS011;29792;48.726;9.248;2024-03-02T02:42:02;18.17;;;12.73;;
44130;SDS011;29792;48.726;9.248;2024-03-02T02:44:28;13.52;;;11.43;;
44130;SDS011;29792;48.726;9.248;2024-03-02T02:46:53;19.45;;;12.80;;
44130;SDS011;29792;48.726;9.248;2024-03-02T02:49:18;17.63;;;11.32;;
44130;SDS011;29792;48.726;9.248;2024-03-02T02:51:43;15.88;;;11.77;;
44130;SDS011;29792;48.726;9.248;2024-03-02T02:54:09;21.17;;;12.82;;
44130;SDS011;29792;48.726;9.248;2024-03-02T02:56:34;17.88;;;11.88;;
44130;SDS011;29792;48.726;9.248;2024-03-02T02:58:59;20.65;;;13.68;;
44130;SDS011;29792;48.726;9.248;2024-03-02T03:01:25;19.90;;;13.20;;
44130;SDS011;29792;48.726;9.248;2024-03-02T03:03:50;19.23;;;13.02;;
44130;SDS011;29792;48.726;9.248;2024-03-02T03:06:16;18.85;;;13.68;;
44130;SDS011;29792;48.726;9.248;2024-03-02T03:08:41;17.63;;;12.60;;
44130;SDS011;29792;48.726;9.248;2024-03-02T03:11:06;20.95;;;14.52;;
44130;SDS011;29792;48.726;9.248;2024-03-02T03:13:31;17.00;;;12.85;;
44130;SDS011;29792;48.726;9.248;2024-03-02T03:15:57;16.55;;;12.70;;
44130;SDS011;29792;48.726;9.248;2024-03-02T03:18:22;20.13;;;13.93;;
44130;SDS011;29792;48.726;9.248;2024-03-02T03:20:48;20.02;;;13.30;;
44130;SDS011;29792;48.726;9.248;2024-03-02T03:23:13;19.77;;;13.52;;
44130;SDS011;29792;48.726;9.248;2024-03-02T03:25:41;16.27;;;12.80;;
44130;SDS011;29792;48.726;9.248;2024-03-02T03:28:07;20.83;;;14.30;;
44130;SDS011;29792;48.726;9.248;2024-03-02T03:30:34;16.13;;;12.88;;
44130;SDS011;29792;48.726;9.248;2024-03-02T03:33:00;15.30;;;11.40;;
44130;SDS011;29792;48.726;9.248;2024-03-02T03:35:25;17.80;;;12.68;;
44130;SDS011;29792;48.726;9.248;2024-03-02T03:37:50;16.38;;;12.15;;
44130;SDS011;29792;48.726;9.248;2024-03-02T03:40:15;13.93;;;10.32;;
44130;SDS011;29792;48.726;9.248;2024-03-02T03:42:41;14.68;;;10.23;;
44130;SDS011;29792;48.726;9.248;2024-03-02T03:45:07;14.13;;;10.35;;
44130;SDS011;29792;48.726;9.248;2024-03-02T03:47:32;15.30;;;11.23;;
44130;SDS011;29792;48.726;9.248;2024-03-02T03:49:57;15.75;;;11.02;;
44130;SDS011;29792;48.726;9.248;2024-03-02T03:52:23;17.23;;;10.77;;
44130;SDS011;29792;48.726;9.248;2024-03-02T03:54:48;12.38;;;9.55;;
44130;SDS011;29792;48.726;9.248;2024-03-02T03:57:13;13.50;;;10.73;;
44130;SDS011;29792;48.726;9.248;2024-03-02T03:59:39;17.38;;;10.98;;
44130;SDS011;29792;48.726;9.248;2024-03-02T04:02:04;15.68;;;11.63;;
44130;SDS011;29792;48.726;9.248;2024-03-02T04:04:29;13.65;;;10.43;;
44130;SDS011;29792;48.726;9.248;2024-03-02T04:06:55;13.80;;;10.48;;
44130;SDS011;29792;48.726;9.248;2024-03-02T04:09:20;16.55;;;11.73;;
44130;SDS011;29792;48.726;9.248;2024-03-02T04:11:45;17.38;;;13.00;;
44130;SDS011;29792;48.726;9.248;2024-03-02T04:14:11;21.48;;;13.60;;
44130;SDS011;29792;48.726;9.248;2024-03-02T04:16:37;20.67;;;14.30;;
44130;SDS011;29792;48.726;9.248;2024-03-02T04:19:02;19.25;;;13.57;;
44130;SDS011;29792;48.726;9.248;2024-03-02T04:21:28;20.55;;;14.60;;
44130;SDS011;29792;48.726;9.248;2024-03-02T04:23:54;21.00;;;14.80;;
44130;SDS011;29792;48.726;9.248;2024-03-02T04:26:23;19.13;;;14.45;;
44130;SDS011;29792;48.726;9.248;2024-03-02T04:28:48;18.67;;;14.75;;
44130;SDS011;29792;48.726;9.248;2024-03-02T04:31:14;22.20;;;15.00;;
44130;SDS011;29792;48.726;9.248;2024-03-02T04:33:40;18.33;;;13.27;;
44130;SDS011;29792;48.726;9.248;2024-03-02T04:36:05;19.70;;;14.13;;
44130;SDS011;29792;48.726;9.248;2024-03-02T04:38:33;20.90;;;14.57;;
44130;SDS011;29792;48.726;9.248;2024-03-02T04:40:58;19.58;;;15.05;;
44130;SDS011;29792;48.726;9.248;2024-03-02T04:43:24;25.52;;;14.25;;
44130;SDS011;29792;48.726;9.248;2024-03-02T04:45:49;20.33;;;14.25;;
44130;SDS011;29792;48.726;9.248;2024-03-02T04:48:14;20.48;;;14.90;;
44130;SDS011;29792;48.726;9.248;2024-03-02T04:50:39;18.92;;;12.98;;
44130;SDS011;29792;48.726;9.248;2024-03-02T04:53:05;17.55;;;13.70;;
44130;SDS011;29792;48.726;9.248;2024-03-02T04:55:30;19.25;;;14.27;;
44130;SDS011;29792;48.726;9.248;2024-03-02T04:58:04;19.00;;;13.88;;
44130;SDS011;29792;48.726;9.248;2024-03-02T05:00:30;18.83;;;14.43;;
44130;SDS011;29792;48.726;9.248;2024-03-02T05:02:55;20.33;;;14.10;;
44130;SDS011;29792;48.726;9.248;2024-03-02T05:05:20;21.40;;;14.85;;
44130;SDS011;29792;48.726;9.248;2024-03-02T05:07:46;22.10;;;14.10;;
44130;SDS011;29792;48.726;9.248;2024-03-02T05:10:11;21.58;;;14.38;;
44130;SDS011;29792;48.726;9.248;2024-03-02T05:12:36;20.48;;;13.35;;
44130;SDS011;29792;48.726;9.248;2024-03-02T05:15:12;18.63;;;14.02;;
44130;SDS011;29792;48.726;9.248;2024-03-02T05:17:39;18.50;;;13.32;;
44130;SDS011;29792;48.726;9.248;2024-03-02T05:20:06;22.65;;;14.48;;
44130;SDS011;29792;48.726;9.248;2024-03-02T05:22:34;21.55;;;14.57;;
44130;SDS011;29792;48.726;9.248;2024-03-02T05:25:00;22.33;;;14.52;;
44130;SDS011;29792;48.726;9.248;2024-03-02T05:27:26;19.58;;;14.23;;
44130;SDS011;29792;48.726;9.248;2024-03-02T05:29:52;19.45;;;14.45;;
44130;SDS011;29792;48.726;9.248;2024-03-02T05:32:17;17.90;;;13.95;;
44130;SDS011;29792;48.726;9.248;2024-03-02T05:34:42;24.52;;;14.80;;
44130;SDS011;29792;48.726;9.248;2024-03-02T05:37:08;20.50;;;13.57;;
44130;SDS011;29792;48.726;9.248;2024-03-02T05:39:33;22.30;;;15.60;;
44130;SDS011;29792;48.726;9.248;2024-03-02T05:41:58;30.75;;;15.05;;
44130;SDS011;29792;48.726;9.248;2024-03-02T05:44:24;38.83;;;16.35;;
44130;SDS011;29792;48.726;9.248;2024-03-02T05:46:49;49.63;;;15.63;;
44130;SDS011;29792;48.726;9.248;2024-03-02T05:49:14;45.20;;;14.00;;
44130;SDS011;29792;48.726;9.248;2024-03-02T05:51:39;38.25;;;15.13;;
44130;SDS011;29792;48.726;9.248;2024-03-02T05:54:05;124.53;;;20.08;;
44130;SDS011;29792;48.726;9.248;2024-03-02T05:56:30;30.27;;;14.10;;
44130;SDS011;29792;48.726;9.248;2024-03-02T05:58:55;26.48;;;13.65;;
44130;SDS011;29792;48.726;9.248;2024-03-02T06:01:37;21.80;;;13.68;;
44130;SDS011;29792;48.726;9.248;2024-03-02T06:04:06;40.47;;;15.77;;
44130;SDS011;29792;48.726;9.248;2024-03-02T06:06:32;89.10;;;17.33;;
44130;SDS011;29792;48.726;9.248;2024-03-02T06:08:59;30.35;;;16.33;;
44130;SDS011;29792;48.726;9.248;2024-03-02T06:11:25;37.75;;;14.65;;
44130;SDS011;29792;48.726;9.248;2024-03-02T06:13:50;23.33;;;15.38;;
44130;SDS011;29792;48.726;9.248;2024-03-02T06:16:15;30.10;;;14.98;;
44130;SDS011;29792;48.726;9.248;2024-03-02T06:18:40;24.05;;;14.88;;
44130;SDS011;29792;48.726;9.248;2024-03-02T06:21:06;23.52;;;15.13;;
44130;SDS011;29792;48.726;9.248;2024-03-02T06:23:31;24.35;;;15.63;;
44130;SDS011;29792;48.726;9.248;2024-03-02T06:25:57;21.38;;;14.50;;
44130;SDS011;29792;48.726;9.248;2024-03-02T06:28:22;22.30;;;15.48;;
44130;SDS011;29792;48.726;9.248;2024-03-02T06:30:47;19.70;;;14.77;;
44130;SDS011;29792;48.726;9.248;2024-03-02T06:33:12;22.17;;;13.95;;
44130;SDS011;29792;48.726;9.248;2024-03-02T06:35:38;18.33;;;13.77;;
44130;SDS011;29792;48.726;9.248;2024-03-02T06:38:04;23.45;;;14.15;;
44130;SDS011;29792;48.726;9.248;2024-03-02T06:40:29;24.38;;;15.25;;
44130;SDS011;29792;48.726;9.248;2024-03-02T06:42:54;22.98;;;13.20;;
44130;SDS011;29792;48.726;9.248;2024-03-02T06:45:20;19.73;;;14.27;;
44130;SDS011;29792;48.726;9.248;2024-03-02T06:47:45;20.70;;;14.18;;
44130;SDS011;29792;48.726;9.248;2024-03-02T06:50:10;21.70;;;13.77;;
44130;SDS011;29792;48.726;9.248;2024-03-02T06:52:36;20.45;;;14.93;;
44130;SDS011;29792;48.726;9.248;2024-03-02T06:55:02;18.27;;;13.98;;
44130;SDS011;29792;48.726;9.248;2024-03-02T06:57:29;17.83;;;14.25;;
44130;SDS011;29792;48.726;9.248;2024-03-02T06:59:54;15.68;;;11.43;;
44130;SDS011;29792;48.726;9.248;2024-03-02T07:02:23;18.05;;;12.00;;
44130;SDS011;29792;48.726;9.248;2024-03-02T07:04:50;17.42;;;11.50;;
44130;SDS011;29792;48.726;9.248;2024-03-02T07:07:16;15.80;;;10.57;;
44130;SDS011;29792;48.726;9.248;2024-03-02T07:09:41;14.10;;;10.65;;
44130;SDS011;29792;48.726;9.248;2024-03-02T07:12:07;17.67;;;12.93;;
44130;SDS011;29792;48.726;9.248;2024-03-02T07:14:32;14.63;;;10.63;;
44130;SDS011;29792;48.726;9.248;2024-03-02T07:17:15;19.48;;;12.70;;
44130;SDS011;29792;48.726;9.248;2024-03-02T07:19:41;17.58;;;12.23;;
44130;SDS011;29792;48.726;9.248;2024-03-02T07:22:06;18.38;;;13.18;;
44130;SDS011;29792;48.726;9.248;2024-03-02T07:24:33;16.10;;;12.18;;
44130;SDS011;29792;48.726;9.248;2024-03-02T07:27:04;13.98;;;10.35;;
44130;SDS011;29792;48.726;9.248;2024-03-02T07:29:29;13.30;;;9.75;;
44130;SDS011;29792;48.726;9.248;2024-03-02T07:31:55;13.63;;;9.35;;
44130;SDS011;29792;48.726;9.248;2024-03-02T07:34:20;12.45;;;8.35;;
44130;SDS011;29792;48.726;9.248;2024-03-02T07:36:45;10.30;;;8.50;;
44130;SDS011;29792;48.726;9.248;2024-03-02T07:39:10;9.85;;;7.72;;
44130;SDS011;29792;48.726;9.248;2024-03-02T07:41:36;9.52;;;7.85;;
44130;SDS011;29792;48.726;9.248;2024-03-02T07:44:01;9.55;;;7.72;;
44130;SDS011;29792;48.726;9.248;2024-03-02T07:46:26;9.45;;;7.88;;
44130;SDS011;29792;48.726;9.248;2024-03-02T07:48:52;10.75;;;8.77;;
44130;SDS011;29792;48.726;9.248;2024-03-02T07:51:17;9.40;;;8.13;;
44130;SDS011;29792;48.726;9.248;2024-03-02T07:53:43;9.52;;;8.40;;
44130;SDS011;29792;48.726;9.248;2024-03-02T07:56:08;9.02;;;7.63;;
44130;SDS011;29792;48.726;9.248;2024-03-02T07:58:33;11.02;;;7.20;;
44130;SDS011;29792;48.726;9.248;2024-03-02T08:01:00;10.70;;;8.57;;
44130;SDS011;29792;48.726;9.248;2024-03-02T08:03:26;9.52;;;7.53;;
44130;SDS011;29792;48.726;9.248;2024-03-02T08:05:51;11.23;;;8.18;;
44130;SDS011;29792;48.726;9.248;2024-03-02T08:08:16;11.20;;;8.77;;
44130;SDS011;29792;48.726;9.248;2024-03-02T08:10:42;10.35;;;8.30;;
44130;SDS011;29792;48.726;9.248;2024-03-02T08:13:07;11.88;;;7.85;;
44130;SDS011;29792;48.726;9.248;2024-03-02T08:15:32;8.05;;;6.93;;
44130;SDS011;29792;48.726;9.248;2024-03-02T08:17:59;9.18;;;6.50;;
44130;SDS011;29792;48.726;9.248;2024-03-02T08:20:24;10.73;;;8.25;;
44130;SDS011;29792;48.726;9.248;2024-03-02T08:22:49;11.45;;;7.53;;
44130;SDS011;29792;48.726;9.248;2024-03-02T08:25:15;10.68;;;7.07;;
44130;SDS011;29792;48.726;9.248;2024-03-02T08:27:41;9.43;;;6.80;;
44130;SDS011;29792;48.726;9.248;2024-03-02T08:30:07;10.95;;;7.38;;
44130;SDS011;29792;48.726;9.248;2024-03-02T08:32:35;9.70;;;7.35;;
44130;SDS011;29792;48.726;9.248;2024-03-02T08:35:00;9.85;;;7.25;;
44130;SDS011;29792;48.726;9.248;2024-03-02T08:37:25;8.82;;;6.90;;
44130;SDS011;29792;48.726;9.248;2024-03-02T08:39:51;9.95;;;7.85;;
44130;SDS011;29792;48.726;9.248;2024-03-02T08:42:16;9.43;;;7.63;;
44130;SDS011;29792;48.726;9.248;2024-03-02T08:44:42;9.57;;;7.43;;
44130;SDS011;29792;48.726;9.248;2024-03-02T08:47:08;12.02;;;7.65;;
44130;SDS011;29792;48.726;9.248;2024-03-02T08:49:33;7.80;;;6.47;;
44130;SDS011;29792;48.726;9.248;2024-03-02T08:51:58;9.57;;;7.45;;
44130;SDS011;29792;48.726;9.248;2024-03-02T08:54:24;8.95;;;7.40;;
44130;SDS011;29792;48.726;9.248;2024-03-02T09:02:56;6.82;;;6.13;;
44130;SDS011;29792;48.726;9.248;2024-03-02T09:05:22;6.13;;;5.25;;
44130;SDS011;29792;48.726;9.248;2024-03-02T09:07:47;6.45;;;5.60;;
44130;SDS011;29792;48.726;9.248;2024-03-02T09:10:12;6.97;;;5.68;;
44130;SDS011;29792;48.726;9.248;2024-03-02T09:12:37;7.35;;;5.95;;
44130;SDS011;29792;48.726;9.248;2024-03-02T09:15:03;6.32;;;4.72;;
44130;SDS011;29792;48.726;9.248;2024-03-02T09:17:29;7.15;;;5.22;;
44130;SDS011;29792;48.726;9.248;2024-03-02T09:19:54;8.43;;;6.05;;
44130;SDS011;29792;48.726;9.248;2024-03-02T09:22:19;5.82;;;5.28;;
44130;SDS011;29792;48.726;9.248;2024-03-02T09:24:45;6.18;;;5.57;;
44130;SDS011;29792;48.726;9.248;2024-03-02T09:27:10;7.18;;;5.55;;
44130;SDS011;29792;48.726;9.248;2024-03-02T09:29:35;7.85;;;5.03;;
44130;SDS011;29792;48.726;9.248;2024-03-02T09:32:01;6.68;;;5.28;;
44130;SDS011;29792;48.726;9.248;2024-03-02T09:34:26;5.68;;;4.63;;
44130;SDS011;29792;48.726;9.248;2024-03-02T09:36:51;5.03;;;4.53;;
44130;SDS011;29792;48.726;9.248;2024-03-02T09:39:17;6.80;;;5.05;;
44130;SDS011;29792;48.726;9.248;2024-03-02T09:41:43;5.95;;;4.95;;
44130;SDS011;29792;48.726;9.248;2024-03-02T09:44:08;6.72;;;4.50;;
44130;SDS011;29792;48.726;9.248;2024-03-02T09:46:34;4.78;;;4.28;;
44130;SDS011;29792;48.726;9.248;2024-03-02T09:49:01;5.72;;;5.13;;
44130;SDS011;29792;48.726;9.248;2024-03-02T09:51:26;5.03;;;4.57;;
44130;SDS011;29792;48.726;9.248;2024-03-02T09:53:52;4.93;;;4.43;;
44130;SDS011;29792;48.726;9.248;2024-03-02T09:56:20;5.75;;;5.15;;
44130;SDS011;29792;48.726;9.248;2024-03-02T09:58:46;5.25;;;4.75;;
44130;SDS011;29792;48.726;9.248;2024-03-02T10:01:12;6.32;;;5.32;;
44130;SDS011;29792;48.726;9.248;2024-03-02T10:03:37;4.85;;;4.45;;
44130;SDS011;29792;48.726;9.248;2024-03-02T10:06:20;6.00;;;4.47;;
44130;SDS011;29792;48.726;9.248;2024-03-02T10:08:49;5.90;;;5.32;;
44130;SDS011;29792;48.726;9.248;2024-03-02T10:11:31;5.38;;;4.90;;
44130;SDS011;29792;48.726;9.248;2024-03-02T10:14:09;5.82;;;4.78;;
44130;SDS011;29792;48.726;9.248;2024-03-02T10:16:38;5.95;;;5.18;;
44130;SDS011;29792;48.726;9.248;2024-03-02T10:21:44;5.55;;;4.38;;
44130;SDS011;29792;48.726;9.248;2024-03-02T10:24:14;5.03;;;4.53;;
44130;SDS011;29792;48.726;9.248;2024-03-02T10:26:39;4.07;;;3.70;;
44130;SDS011;29792;48.726;9.248;2024-03-02T10:29:05;4.65;;;4.25;;
44130;SDS011;29792;48.726;9.248;2024-03-02T10:31:30;4.90;;;3.80;;
44130;SDS011;29792;48.726;9.248;2024-03-02T10:33:55;4.75;;;4.25;;
44130;SDS011;29792;48.726;9.248;2024-03-02T10:36:22;5.10;;;4.28;;
44130;SDS011;29792;48.726;9.248;2024-03-02T10:38:47;3.70;;;3.40;;
44130;SDS011;29792;48.726;9.248;2024-03-02T10:41:16;3.65;;;3.30;;
44130;SDS011;29792;48.726;9.248;2024-03-02T10:43:43;3.97;;;3.35;;
44130;SDS011;29792;48.726;9.248;2024-03-02T10:46:09;3.20;;;2.90;;
44130;SDS011;29792;48.726;9.248;2024-03-02T10:48:36;3.85;;;2.80;;
44130;SDS011;29792;48.726;9.248;2024-03-02T10:51:04;3.88;;;3.47;;
44130;SDS011;29792;48.726;9.248;2024-03-02T10:53:29;3.60;;;2.60;;
44130;SDS011;29792;48.726;9.248;2024-03-02T10:55:57;3.10;;;2.75;;
44130;SDS011;29792;48.726;9.248;2024-03-02T10:58:27;2.92;;;2.67;;
44130;SDS011;29792;48.726;9.248;2024-03-02T11:00:57;3.85;;;2.78;;
44130;SDS011;29792;48.726;9.248;2024-03-02T11:03:27;2.50;;;2.22;;
44130;SDS011;29792;48.726;9.248;2024-03-02T11:05:57;3.63;;;3.17;;
44130;SDS011;29792;48.726;9.248;2024-03-02T11:08:24;2.22;;;2.00;;
44130;SDS011;29792;48.726;9.248;2024-03-02T11:11:00;2.72;;;2.00;;
44130;SDS011;29792;48.726;9.248;2024-03-02T11:13:31;4.05;;;3.13;;
44130;SDS011;29792;48.726;9.248;2024-03-02T11:15:59;1.92;;;1.75;;
44130;SDS011;29792;48.726;9.248;2024-03-02T11:18:30;2.28;;;1.88;;
44130;SDS011;29792;48.726;9.248;2024-03-02T11:20:57;1.88;;;1.70;;
44130;SDS011;29792;48.726;9.248;2024-03-02T11:23:33;2.03;;;1.83;;
44130;SDS011;29792;48.726;9.248;2024-03-02T11:26:19;2.05;;;1.85;;
44130;SDS011;29792;48.726;9.248;2024-03-02T11:28:45;1.95;;;1.77;;
44130;SDS011;29792;48.726;9.248;2024-03-02T11:31:10;1.75;;;1.65;;
44130;SDS011;29792;48.726;9.248;2024-03-02T11:33:36;1.85;;;1.00;;
44130;SDS011;29792;48.726;9.248;2024-03-02T11:36:01;1.48;;;1.38;;
44130;SDS011;29792;48.726;9.248;2024-03-02T11:38:30;1.48;;;1.00;;
44130;SDS011;29792;48.726;9.248;2024-03-02T11:40:57;2.22;;;1.55;;
44130;SDS011;29792;48.726;9.248;2024-03-02T11:43:25;1.30;;;0.93;;
44130;SDS011;29792;48.726;9.248;2024-03-02T11:46:03;1.92;;;1.10;;
44130;SDS011;29792;48.726;9.248;2024-03-02T11:48:31;1.17;;;0.90;;
44130;SDS011;29792;48.726;9.248;2024-03-02T11:50:58;1.30;;;0.57;;
44130;SDS011;29792;48.726;9.248;2024-03-02T11:53:24;0.82;;;0.60;;
44130;SDS011;29792;48.726;9.248;2024-03-02T11:55:52;0.75;;;0.50;;
44130;SDS011;29792;48.726;9.248;2024-03-02T11:58:20;0.88;;;0.40;;
44130;SDS011;29792;48.726;9.248;2024-03-02T12:00:50;0.35;;;0.35;;
44130;SDS011;29792;48.726;9.248;2024-03-02T12:03:16;1.38;;;0.85;;
44130;SDS011;29792;48.726;9.248;2024-03-02T12:05:42;1.10;;;0.68;;
44130;SDS011;29792;48.726;9.248;2024-03-02T12:08:07;0.80;;;0.80;;
44130;SDS011;29792;48.726;9.248;2024-03-02T12:10:33;1.52;;;0.82;;
44130;SDS011;29792;48.726;9.248;2024-03-02T12:12:59;1.13;;;0.90;;
44130;SDS011;29792;48.726;9.248;2024-03-02T12:15:27;1.08;;;0.70;;
44130;SDS011;29792;48.726;9.248;2024-03-02T12:17:55;1.45;;;0.70;;
44130;SDS011;29792;48.726;9.248;2024-03-02T12:20:24;1.30;;;0.80;;
44130;SDS011;29792;48.726;9.248;2024-03-02T12:22:52;1.33;;;0.80;;
44130;SDS011;29792;48.726;9.248;2024-03-02T12:25:18;1.48;;;0.88;;
44130;SDS011;29792;48.726;9.248;2024-03-02T12:27:49;0.80;;;0.70;;
44130;SDS011;29792;48.726;9.248;2024-03-02T12:30:19;2.35;;;0.60;;
44130;SDS011;29792;48.726;9.248;2024-03-02T12:32:46;1.00;;;0.70;;
44130;SDS011;29792;48.726;9.248;2024-03-02T12:35:12;0.88;;;0.50;;
44130;SDS011;29792;48.726;9.248;2024-03-02T12:37:42;0.45;;;0.40;;
44130;SDS011;29792;48.726;9.248;2024-03-02T12:40:11;1.77;;;0.70;;
44130;SDS011;29792;48.726;9.248;2024-03-02T12:42:38;0.80;;;0.60;;
44130;SDS011;29792;48.726;9.248;2024-03-02T12:45:04;1.05;;;0.40;;
44130;SDS011;29792;48.726;9.248;2024-03-02T12:47:30;0.55;;;0.50;;
44130;SDS011;29792;48.726;9.248;2024-03-02T12:49:55;0.75;;;0.40;;
44130;SDS011;29792;48.726;9.248;2024-03-02T12:52:21;0.82;;;0.77;;
44130;SDS011;29792;48.726;9.248;2024-03-02T12:54:47;1.63;;;0.50;;
44130;SDS011;29792;48.726;9.248;2024-03-02T12:57:16;0.70;;;0.70;;
44130;SDS011;29792;48.726;9.248;2024-03-02T12:59:44;1.80;;;0.70;;
44130;SDS011;29792;48.726;9.248;2024-03-02T13:02:16;1.00;;;0.60;;
44130;SDS011;29792;48.726;9.248;2024-03-02T13:04:42;1.95;;;0.80;;
44130;SDS011;29792;48.726;9.248;2024-03-02T13:07:08;1.40;;;0.65;;
44130;SDS011;29792;48.726;9.248;2024-03-02T13:09:33;1.00;;;0.80;;
44130;SDS011;29792;48.726;9.248;2024-03-02T13:11:59;2.70;;;1.00;;
44130;SDS011;29792;48.726;9.248;2024-03-02T13:14:25;1.58;;;0.82;;
44130;SDS011;29792;48.726;9.248;2024-03-02T13:16:51;0.80;;;0.45;;
44130;SDS011;29792;48.726;9.248;2024-03-02T13:19:17;0.57;;;0.50;;
44130;SDS011;29792;48.726;9.248;2024-03-02T13:21:44;1.80;;;0.93;;
44130;SDS011;29792;48.726;9.248;2024-03-02T13:24:09;1.35;;;0.40;;
44130;SDS011;29792;48.726;9.248;2024-03-02T13:26:34;0.65;;;0.65;;
44130;SDS011;29792;48.726;9.248;2024-03-02T13:29:00;1.45;;;0.60;;
44130;SDS011;29792;48.726;9.248;2024-03-02T13:31:25;2.78;;;0.50;;
44130;SDS011;29792;48.726;9.248;2024-03-02T13:33:50;1.48;;;0.57;;
44130;SDS011;29792;48.726;9.248;2024-03-02T13:36:16;0.50;;;0.35;;
44130;SDS011;29792;48.726;9.248;2024-03-02T13:38:42;0.70;;;0.45;;
44130;SDS011;29792;48.726;9.248;2024-03-02T13:41:07;1.15;;;0.65;;
44130;SDS011;29792;48.726;9.248;2024-03-02T13:43:32;0.52;;;0.50;;
44130;SDS011;29792;48.726;9.248;2024-03-02T13:45:59;0.93;;;0.60;;
44130;SDS011;29792;48.726;9.248;2024-03-02T13:48:25;0.50;;;0.47;;
44130;SDS011;29792;48.726;9.248;2024-03-02T13:50:53;0.80;;;0.40;;
44130;SDS011;29792;48.726;9.248;2024-03-02T13:53:19;0.50;;;0.45;;
44130;SDS011;29792;48.726;9.248;2024-03-02T13:55:45;0.35;;;0.35;;
44130;SDS011;29792;48.726;9.248;2024-03-02T13:58:10;2.47;;;2.13;;
44130;SDS011;29792;48.726;9.248;2024-03-02T14:00:36;1.02;;;0.50;;
44130;SDS011;29792;48.726;9.248;2024-03-02T14:03:03;1.85;;;0.95;;
44130;SDS011;29792;48.726;9.248;2024-03-02T14:05:30;0.52;;;0.30;;
44130;SDS011;29792;48.726;9.248;2024-03-02T14:07:55;2.75;;;0.50;;
44130;SDS011;29792;48.726;9.248;2024-03-02T14:10:20;0.70;;;0.50;;
44130;SDS011;29792;48.726;9.248;2024-03-02T14:12:47;1.48;;;0.40;;
44130;SDS011;29792;48.726;9.248;2024-03-02T14:15:13;0.70;;;0.50;;
44130;SDS011;29792;48.726;9.248;2024-03-02T14:17:38;0.63;;;0.20;;
44130;SDS011;29792;48.726;9.248;2024-03-02T14:20:04;0.50;;;0.22;;
44130;SDS011;29792;48.726;9.248;2024-03-02T14:22:30;0.40;;;0.30;;
44130;SDS011;29792;48.726;9.248;2024-03-02T14:24:55;1.50;;;0.93;;
44130;SDS011;29792;48.726;9.248;2024-03-02T14:27:21;0.85;;;0.73;;
44130;SDS011;29792;48.726;9.248;2024-03-02T14:29:46;0.52;;;0.40;;
44130;SDS011;29792;48.726;9.248;2024-03-02T14:32:11;1.13;;;1.02;;
44130;SDS011;29792;48.726;9.248;2024-03-02T14:34:37;2.08;;;0.57;;
44130;SDS011;29792;48.726;9.248;2024-03-02T14:37:03;1.33;;;0.70;;
44130;SDS011;29792;48.726;9.248;2024-03-02T14:39:28;2.35;;;0.57;;